sensor_id;sensor_type;location;lat;lon;timestamp;temperature;humidity
44063;DHT22;29727;47.606;19.130;2023-04-24T00:01:33;14.80;61.80
44063;DHT22;29727;47.606;19.130;2023-04-24T00:03:59;14.90;62.30
44063;DHT22;29727;47.606;19.130;2023-04-24T00:06:28;14.90;62.20
44063;DHT22;29727;47.606;19.130;2023-04-24T00:09:00;14.90;61.90
44063;DHT22;29727;47.606;19.130;2023-04-24T00:11:26;14.90;61.30
44063;DHT22;29727;47.606;19.130;2023-04-24T00:13:52;14.90;61.60
44063;DHT22;29727;47.606;19.130;2023-04-24T00:16:19;14.90;62.20
44063;DHT22;29727;47.606;19.130;2023-04-24T00:18:44;15.00;60.90
44063;DHT22;29727;47.606;19.130;2023-04-24T00:21:10;14.90;61.10
44063;DHT22;29727;47.606;19.130;2023-04-24T00:23:36;14.90;61.60
44063;DHT22;29727;47.606;19.130;2023-04-24T00:26:02;14.90;62.10
44063;DHT22;29727;47.606;19.130;2023-04-24T00:28:28;14.90;62.20
44063;DHT22;29727;47.606;19.130;2023-04-24T00:30:53;14.90;62.90
44063;DHT22;29727;47.606;19.130;2023-04-24T00:33:19;14.90;63.90
44063;DHT22;29727;47.606;19.130;2023-04-24T00:35:45;14.90;64.50
44063;DHT22;29727;47.606;19.130;2023-04-24T00:38:11;14.90;64.80
44063;DHT22;29727;47.606;19.130;2023-04-24T00:40:37;14.90;65.40
44063;DHT22;29727;47.606;19.130;2023-04-24T00:43:02;14.80;64.80
44063;DHT22;29727;47.606;19.130;2023-04-24T00:45:28;15.00;64.80
44063;DHT22;29727;47.606;19.130;2023-04-24T00:47:53;14.90;64.50
44063;DHT22;29727;47.606;19.130;2023-04-24T00:50:21;14.90;65.20
44063;DHT22;29727;47.606;19.130;2023-04-24T00:52:47;14.90;65.00
44063;DHT22;29727;47.606;19.130;2023-04-24T00:55:12;15.00;65.00
44063;DHT22;29727;47.606;19.130;2023-04-24T00:57:38;15.00;64.90
44063;DHT22;29727;47.606;19.130;2023-04-24T01:00:05;14.90;64.40
44063;DHT22;29727;47.606;19.130;2023-04-24T01:02:36;15.00;64.30
44063;DHT22;29727;47.606;19.130;2023-04-24T01:05:02;15.00;64.10
44063;DHT22;29727;47.606;19.130;2023-04-24T01:07:29;15.00;64.40
44063;DHT22;29727;47.606;19.130;2023-04-24T01:09:54;15.00;63.90
44063;DHT22;29727;47.606;19.130;2023-04-24T01:12:20;15.00;64.60
44063;DHT22;29727;47.606;19.130;2023-04-24T01:14:46;15.00;65.70
44063;DHT22;29727;47.606;19.130;2023-04-24T01:17:12;15.00;65.50
44063;DHT22;29727;47.606;19.130;2023-04-24T01:19:38;14.90;65.40
44063;DHT22;29727;47.606;19.130;2023-04-24T01:22:15;14.90;66.00
44063;DHT22;29727;47.606;19.130;2023-04-24T01:24:42;15.00;66.00
44063;DHT22;29727;47.606;19.130;2023-04-24T01:27:09;15.00;66.80
44063;DHT22;29727;47.606;19.130;2023-04-24T01:29:35;14.90;66.20
44063;DHT22;29727;47.606;19.130;2023-04-24T01:32:02;14.90;66.80
44063;DHT22;29727;47.606;19.130;2023-04-24T01:34:30;15.00;66.80
44063;DHT22;29727;47.606;19.130;2023-04-24T01:36:56;14.90;66.80
44063;DHT22;29727;47.606;19.130;2023-04-24T01:39:22;14.90;66.70
44063;DHT22;29727;47.606;19.130;2023-04-24T01:41:52;14.90;66.50
44063;DHT22;29727;47.606;19.130;2023-04-24T01:44:18;14.90;66.40
44063;DHT22;29727;47.606;19.130;2023-04-24T01:46:44;14.90;65.60
44063;DHT22;29727;47.606;19.130;2023-04-24T01:49:10;14.90;66.00
44063;DHT22;29727;47.606;19.130;2023-04-24T01:51:35;14.90;65.80
44063;DHT22;29727;47.606;19.130;2023-04-24T01:54:01;14.70;65.50
44063;DHT22;29727;47.606;19.130;2023-04-24T01:56:29;14.90;66.00
44063;DHT22;29727;47.606;19.130;2023-04-24T01:58:55;14.90;65.30
44063;DHT22;29727;47.606;19.130;2023-04-24T02:01:23;14.90;66.00
44063;DHT22;29727;47.606;19.130;2023-04-24T02:03:48;14.90;65.70
44063;DHT22;29727;47.606;19.130;2023-04-24T02:06:14;14.90;65.60
44063;DHT22;29727;47.606;19.130;2023-04-24T02:08:40;14.90;65.40
44063;DHT22;29727;47.606;19.130;2023-04-24T02:11:06;15.00;65.40
44063;DHT22;29727;47.606;19.130;2023-04-24T02:13:31;14.90;64.70
44063;DHT22;29727;47.606;19.130;2023-04-24T02:15:58;14.90;65.00
44063;DHT22;29727;47.606;19.130;2023-04-24T02:18:24;14.90;65.40
44063;DHT22;29727;47.606;19.130;2023-04-24T02:20:50;14.90;66.70
44063;DHT22;29727;47.606;19.130;2023-04-24T02:23:15;14.90;67.30
44063;DHT22;29727;47.606;19.130;2023-04-24T02:25:41;14.80;69.60
44063;DHT22;29727;47.606;19.130;2023-04-24T02:28:07;14.60;70.20
44063;DHT22;29727;47.606;19.130;2023-04-24T02:30:32;14.50;70.80
44063;DHT22;29727;47.606;19.130;2023-04-24T02:32:58;14.40;71.60
44063;DHT22;29727;47.606;19.130;2023-04-24T02:35:24;14.40;72.20
44063;DHT22;29727;47.606;19.130;2023-04-24T02:37:49;14.30;72.10
44063;DHT22;29727;47.606;19.130;2023-04-24T02:40:15;14.40;73.20
44063;DHT22;29727;47.606;19.130;2023-04-24T02:42:41;14.40;73.90
44063;DHT22;29727;47.606;19.130;2023-04-24T02:45:07;14.40;74.00
44063;DHT22;29727;47.606;19.130;2023-04-24T02:47:32;14.40;74.60
44063;DHT22;29727;47.606;19.130;2023-04-24T02:49:58;14.30;75.40
44063;DHT22;29727;47.606;19.130;2023-04-24T02:52:24;14.40;75.20
44063;DHT22;29727;47.606;19.130;2023-04-24T02:54:49;14.40;75.50
44063;DHT22;29727;47.606;19.130;2023-04-24T02:57:15;14.40;76.20
44063;DHT22;29727;47.606;19.130;2023-04-24T02:59:41;14.40;76.60
44063;DHT22;29727;47.606;19.130;2023-04-24T03:02:07;14.40;75.10
44063;DHT22;29727;47.606;19.130;2023-04-24T03:04:32;14.30;72.90
44063;DHT22;29727;47.606;19.130;2023-04-24T03:06:58;14.10;72.90
44063;DHT22;29727;47.606;19.130;2023-04-24T03:09:24;14.00;74.10
44063;DHT22;29727;47.606;19.130;2023-04-24T03:11:50;13.90;74.20
44063;DHT22;29727;47.606;19.130;2023-04-24T03:14:16;13.80;73.50
44063;DHT22;29727;47.606;19.130;2023-04-24T03:16:42;13.70;73.50
44063;DHT22;29727;47.606;19.130;2023-04-24T03:19:08;13.50;73.70
44063;DHT22;29727;47.606;19.130;2023-04-24T03:21:34;13.50;74.30
44063;DHT22;29727;47.606;19.130;2023-04-24T03:24:01;13.40;74.80
44063;DHT22;29727;47.606;19.130;2023-04-24T03:26:27;13.50;74.50
44063;DHT22;29727;47.606;19.130;2023-04-24T03:28:53;13.50;75.00
44063;DHT22;29727;47.606;19.130;2023-04-24T03:31:18;13.60;74.60
44063;DHT22;29727;47.606;19.130;2023-04-24T03:33:46;13.60;74.50
44063;DHT22;29727;47.606;19.130;2023-04-24T03:36:12;13.70;74.80
44063;DHT22;29727;47.606;19.130;2023-04-24T03:38:37;13.80;74.70
44063;DHT22;29727;47.606;19.130;2023-04-24T03:41:03;13.80;74.10
44063;DHT22;29727;47.606;19.130;2023-04-24T03:43:29;13.90;74.40
44063;DHT22;29727;47.606;19.130;2023-04-24T03:45:54;14.00;74.50
44063;DHT22;29727;47.606;19.130;2023-04-24T03:48:20;14.00;74.30
44063;DHT22;29727;47.606;19.130;2023-04-24T03:50:46;14.00;74.10
44063;DHT22;29727;47.606;19.130;2023-04-24T03:53:12;14.10;74.00
44063;DHT22;29727;47.606;19.130;2023-04-24T03:55:37;14.20;73.10
44063;DHT22;29727;47.606;19.130;2023-04-24T03:58:03;14.10;73.30
44063;DHT22;29727;47.606;19.130;2023-04-24T04:00:28;14.20;73.70
44063;DHT22;29727;47.606;19.130;2023-04-24T04:02:58;14.10;73.60
44063;DHT22;29727;47.606;19.130;2023-04-24T04:05:24;14.30;74.10
44063;DHT22;29727;47.606;19.130;2023-04-24T04:07:49;14.30;74.40
44063;DHT22;29727;47.606;19.130;2023-04-24T04:10:15;14.30;74.00
44063;DHT22;29727;47.606;19.130;2023-04-24T04:12:42;14.30;73.30
44063;DHT22;29727;47.606;19.130;2023-04-24T04:15:08;14.30;73.70
44063;DHT22;29727;47.606;19.130;2023-04-24T04:17:34;14.40;73.60
44063;DHT22;29727;47.606;19.130;2023-04-24T04:20:00;14.40;72.70
44063;DHT22;29727;47.606;19.130;2023-04-24T04:22:26;14.40;72.70
44063;DHT22;29727;47.606;19.130;2023-04-24T04:24:52;14.50;73.30
44063;DHT22;29727;47.606;19.130;2023-04-24T04:27:17;14.50;73.20
44063;DHT22;29727;47.606;19.130;2023-04-24T04:29:44;14.50;72.80
44063;DHT22;29727;47.606;19.130;2023-04-24T04:34:36;14.50;72.70
44063;DHT22;29727;47.606;19.130;2023-04-24T04:37:03;14.50;73.30
44063;DHT22;29727;47.606;19.130;2023-04-24T04:39:29;14.50;73.40
44063;DHT22;29727;47.606;19.130;2023-04-24T04:41:55;14.50;73.30
44063;DHT22;29727;47.606;19.130;2023-04-24T04:44:20;14.60;73.70
44063;DHT22;29727;47.606;19.130;2023-04-24T04:46:46;14.60;74.50
44063;DHT22;29727;47.606;19.130;2023-04-24T04:49:12;14.70;74.50
44063;DHT22;29727;47.606;19.130;2023-04-24T04:51:38;14.60;74.90
44063;DHT22;29727;47.606;19.130;2023-04-24T04:54:04;14.60;75.00
44063;DHT22;29727;47.606;19.130;2023-04-24T04:56:30;14.60;74.30
44063;DHT22;29727;47.606;19.130;2023-04-24T04:58:55;15.00;74.80
44063;DHT22;29727;47.606;19.130;2023-04-24T05:01:21;14.70;74.40
44063;DHT22;29727;47.606;19.130;2023-04-24T05:03:48;14.70;73.70
44063;DHT22;29727;47.606;19.130;2023-04-24T05:06:14;14.50;73.70
44063;DHT22;29727;47.606;19.130;2023-04-24T05:08:40;14.80;73.80
44063;DHT22;29727;47.606;19.130;2023-04-24T05:11:06;14.60;74.00
44063;DHT22;29727;47.606;19.130;2023-04-24T05:13:31;14.80;72.90
44063;DHT22;29727;47.606;19.130;2023-04-24T05:15:58;14.80;73.30
44063;DHT22;29727;47.606;19.130;2023-04-24T05:18:23;14.80;73.50
44063;DHT22;29727;47.606;19.130;2023-04-24T05:20:49;14.80;72.40
44063;DHT22;29727;47.606;19.130;2023-04-24T05:23:15;14.80;72.30
44063;DHT22;29727;47.606;19.130;2023-04-24T05:25:40;14.80;73.00
44063;DHT22;29727;47.606;19.130;2023-04-24T05:28:06;14.80;73.00
44063;DHT22;29727;47.606;19.130;2023-04-24T05:30:32;14.80;72.10
44063;DHT22;29727;47.606;19.130;2023-04-24T05:35:24;14.80;72.40
44063;DHT22;29727;47.606;19.130;2023-04-24T05:37:50;14.80;73.20
44063;DHT22;29727;47.606;19.130;2023-04-24T05:40:16;14.80;72.80
44063;DHT22;29727;47.606;19.130;2023-04-24T05:42:41;14.80;71.90
44063;DHT22;29727;47.606;19.130;2023-04-24T05:45:07;14.90;72.50
44063;DHT22;29727;47.606;19.130;2023-04-24T05:47:33;15.00;72.70
44063;DHT22;29727;47.606;19.130;2023-04-24T05:49:59;14.90;72.60
44063;DHT22;29727;47.606;19.130;2023-04-24T05:52:24;14.90;72.90
44063;DHT22;29727;47.606;19.130;2023-04-24T05:54:50;14.90;72.80
44063;DHT22;29727;47.606;19.130;2023-04-24T05:57:16;14.90;72.70
44063;DHT22;29727;47.606;19.130;2023-04-24T05:59:41;14.90;73.20
44063;DHT22;29727;47.606;19.130;2023-04-24T06:02:07;14.90;71.50
44063;DHT22;29727;47.606;19.130;2023-04-24T06:04:33;14.90;71.90
44063;DHT22;29727;47.606;19.130;2023-04-24T06:06:59;14.90;72.60
44063;DHT22;29727;47.606;19.130;2023-04-24T06:09:25;14.90;72.90
44063;DHT22;29727;47.606;19.130;2023-04-24T06:14:21;14.90;72.40
44063;DHT22;29727;47.606;19.130;2023-04-24T06:16:47;15.00;73.00
44063;DHT22;29727;47.606;19.130;2023-04-24T06:19:13;15.10;71.90
44063;DHT22;29727;47.606;19.130;2023-04-24T06:21:39;15.20;72.40
44063;DHT22;29727;47.606;19.130;2023-04-24T06:24:04;15.30;71.70
44063;DHT22;29727;47.606;19.130;2023-04-24T06:26:30;15.40;70.50
44063;DHT22;29727;47.606;19.130;2023-04-24T06:28:56;15.50;70.40
44063;DHT22;29727;47.606;19.130;2023-04-24T06:31:23;15.60;68.80
44063;DHT22;29727;47.606;19.130;2023-04-24T06:33:49;15.60;68.50
44063;DHT22;29727;47.606;19.130;2023-04-24T06:36:15;15.70;69.40
44063;DHT22;29727;47.606;19.130;2023-04-24T06:38:41;16.10;70.00
44063;DHT22;29727;47.606;19.130;2023-04-24T06:41:07;15.80;70.00
44063;DHT22;29727;47.606;19.130;2023-04-24T13:42:07;18.10;78.80
44063;DHT22;29727;47.606;19.130;2023-04-24T13:44:33;18.00;79.20
44063;DHT22;29727;47.606;19.130;2023-04-24T13:46:59;17.90;79.50
44063;DHT22;29727;47.606;19.130;2023-04-24T13:49:26;17.80;79.90
44063;DHT22;29727;47.606;19.130;2023-04-24T13:51:53;17.70;80.00
44063;DHT22;29727;47.606;19.130;2023-04-24T13:54:19;17.70;79.50
44063;DHT22;29727;47.606;19.130;2023-04-24T13:56:45;17.70;79.60
44063;DHT22;29727;47.606;19.130;2023-04-24T13:59:12;17.70;80.00
44063;DHT22;29727;47.606;19.130;2023-04-24T14:01:38;17.70;80.80
44063;DHT22;29727;47.606;19.130;2023-04-24T14:04:04;17.70;77.80
44063;DHT22;29727;47.606;19.130;2023-04-24T14:06:30;17.70;78.60
44063;DHT22;29727;47.606;19.130;2023-04-24T14:08:56;17.60;78.40
44063;DHT22;29727;47.606;19.130;2023-04-24T14:11:22;17.50;79.10
44063;DHT22;29727;47.606;19.130;2023-04-24T14:13:48;17.50;78.70
44063;DHT22;29727;47.606;19.130;2023-04-24T15:19:37;17.40;79.90
44063;DHT22;29727;47.606;19.130;2023-04-24T15:22:03;17.80;80.10
44063;DHT22;29727;47.606;19.130;2023-04-24T15:24:28;17.40;80.20
44063;DHT22;29727;47.606;19.130;2023-04-24T15:26:54;17.50;80.40
44063;DHT22;29727;47.606;19.130;2023-04-24T15:29:20;17.70;80.40
44063;DHT22;29727;47.606;19.130;2023-04-24T15:31:46;17.60;80.80
44063;DHT22;29727;47.606;19.130;2023-04-24T15:34:11;17.60;79.40
44063;DHT22;29727;47.606;19.130;2023-04-24T15:36:37;17.60;80.00
44063;DHT22;29727;47.606;19.130;2023-04-24T15:39:03;17.60;79.50
44063;DHT22;29727;47.606;19.130;2023-04-24T15:41:29;17.60;77.30
44063;DHT22;29727;47.606;19.130;2023-04-24T15:43:54;17.60;77.60
44063;DHT22;29727;47.606;19.130;2023-04-24T15:46:21;17.50;79.30
44063;DHT22;29727;47.606;19.130;2023-04-24T15:48:47;17.40;78.40
44063;DHT22;29727;47.606;19.130;2023-04-24T15:51:12;17.40;78.60
44063;DHT22;29727;47.606;19.130;2023-04-24T15:53:38;17.40;78.70
44063;DHT22;29727;47.606;19.130;2023-04-24T15:56:04;17.50;77.40
44063;DHT22;29727;47.606;19.130;2023-04-24T15:58:29;17.30;77.80
44063;DHT22;29727;47.606;19.130;2023-04-24T16:00:55;17.30;77.70
44063;DHT22;29727;47.606;19.130;2023-04-24T16:03:21;17.20;78.10
44063;DHT22;29727;47.606;19.130;2023-04-24T16:05:47;17.20;78.10
44063;DHT22;29727;47.606;19.130;2023-04-24T16:08:12;17.20;78.00
44063;DHT22;29727;47.606;19.130;2023-04-24T16:10:41;17.20;78.40
44063;DHT22;29727;47.606;19.130;2023-04-24T16:13:07;17.20;78.20
44063;DHT22;29727;47.606;19.130;2023-04-24T16:15:33;17.20;77.90
44063;DHT22;29727;47.606;19.130;2023-04-24T16:18:00;17.10;78.30
44063;DHT22;29727;47.606;19.130;2023-04-24T16:20:26;17.20;78.70
44063;DHT22;29727;47.606;19.130;2023-04-24T16:22:52;17.20;79.10
44063;DHT22;29727;47.606;19.130;2023-04-24T16:25:17;17.30;78.40
44063;DHT22;29727;47.606;19.130;2023-04-24T16:27:43;17.10;77.60
44063;DHT22;29727;47.606;19.130;2023-04-24T16:30:11;17.20;78.00
44063;DHT22;29727;47.606;19.130;2023-04-24T16:32:37;17.20;76.90
44063;DHT22;29727;47.606;19.130;2023-04-24T16:35:02;17.10;77.70
44063;DHT22;29727;47.606;19.130;2023-04-24T16:37:28;17.00;78.00
44063;DHT22;29727;47.606;19.130;2023-04-24T16:39:54;17.00;78.90
44063;DHT22;29727;47.606;19.130;2023-04-24T16:42:20;16.90;77.80
44063;DHT22;29727;47.606;19.130;2023-04-24T16:44:46;16.90;78.30
44063;DHT22;29727;47.606;19.130;2023-04-24T16:47:12;16.90;78.00
44063;DHT22;29727;47.606;19.130;2023-04-24T16:49:41;16.80;78.40
44063;DHT22;29727;47.606;19.130;2023-04-24T16:52:09;16.80;78.10
44063;DHT22;29727;47.606;19.130;2023-04-24T16:54:35;16.70;78.50
44063;DHT22;29727;47.606;19.130;2023-04-24T16:57:02;16.60;78.90
44063;DHT22;29727;47.606;19.130;2023-04-24T16:59:28;16.60;78.80
44063;DHT22;29727;47.606;19.130;2023-04-24T17:01:55;16.60;79.20
44063;DHT22;29727;47.606;19.130;2023-04-24T17:04:21;16.50;79.40
44063;DHT22;29727;47.606;19.130;2023-04-24T17:06:46;16.50;79.30
44063;DHT22;29727;47.606;19.130;2023-04-24T17:09:12;16.50;79.70
44063;DHT22;29727;47.606;19.130;2023-04-24T17:11:40;16.40;79.70
44063;DHT22;29727;47.606;19.130;2023-04-24T17:14:06;16.40;79.60
44063;DHT22;29727;47.606;19.130;2023-04-24T17:16:32;16.40;79.40
44063;DHT22;29727;47.606;19.130;2023-04-24T17:18:58;16.40;80.00
44063;DHT22;29727;47.606;19.130;2023-04-24T17:21:24;16.40;80.50
44063;DHT22;29727;47.606;19.130;2023-04-24T17:23:51;16.40;80.20
44063;DHT22;29727;47.606;19.130;2023-04-24T17:26:16;16.50;80.00
44063;DHT22;29727;47.606;19.130;2023-04-24T17:28:42;16.40;80.40
44063;DHT22;29727;47.606;19.130;2023-04-24T17:31:07;16.50;80.50
44063;DHT22;29727;47.606;19.130;2023-04-24T17:33:33;16.50;80.30
44063;DHT22;29727;47.606;19.130;2023-04-24T17:35:59;16.50;80.60
44063;DHT22;29727;47.606;19.130;2023-04-24T17:38:28;16.50;79.60
44063;DHT22;29727;47.606;19.130;2023-04-24T17:40:55;16.50;79.90
44063;DHT22;29727;47.606;19.130;2023-04-24T17:43:22;16.40;79.10
44063;DHT22;29727;47.606;19.130;2023-04-24T17:45:49;16.50;78.70
44063;DHT22;29727;47.606;19.130;2023-04-24T17:48:16;16.50;79.10
44063;DHT22;29727;47.606;19.130;2023-04-24T17:50:43;16.40;79.00
44063;DHT22;29727;47.606;19.130;2023-04-24T17:53:09;16.30;79.70
44063;DHT22;29727;47.606;19.130;2023-04-24T17:55:36;16.40;80.20
44063;DHT22;29727;47.606;19.130;2023-04-24T17:58:02;16.40;79.60
44063;DHT22;29727;47.606;19.130;2023-04-24T18:57:12;15.40;79.00
44063;DHT22;29727;47.606;19.130;2023-04-24T18:59:38;15.40;79.90
44063;DHT22;29727;47.606;19.130;2023-04-24T19:02:04;15.40;80.10
44063;DHT22;29727;47.606;19.130;2023-04-24T19:04:30;15.30;80.10
44063;DHT22;29727;47.606;19.130;2023-04-24T19:06:55;15.20;78.90
44063;DHT22;29727;47.606;19.130;2023-04-24T19:09:21;15.20;79.00
44063;DHT22;29727;47.606;19.130;2023-04-24T19:11:47;14.90;79.70
44063;DHT22;29727;47.606;19.130;2023-04-24T19:14:13;15.00;80.10
44063;DHT22;29727;47.606;19.130;2023-04-24T19:16:40;15.00;80.40
44063;DHT22;29727;47.606;19.130;2023-04-24T19:19:06;15.00;80.30
44063;DHT22;29727;47.606;19.130;2023-04-24T19:45:49;14.90;78.00
44063;DHT22;29727;47.606;19.130;2023-04-24T19:48:15;15.00;78.20
44063;DHT22;29727;47.606;19.130;2023-04-24T19:50:41;15.00;77.80
44063;DHT22;29727;47.606;19.130;2023-04-24T19:53:07;15.30;79.00
44063;DHT22;29727;47.606;19.130;2023-04-24T19:55:33;14.80;78.80
44063;DHT22;29727;47.606;19.130;2023-04-24T19:57:59;15.00;79.50
44063;DHT22;29727;47.606;19.130;2023-04-24T20:00:25;14.90;79.70
44063;DHT22;29727;47.606;19.130;2023-04-24T20:02:51;14.90;79.80
44063;DHT22;29727;47.606;19.130;2023-04-24T20:05:16;14.90;79.90
44063;DHT22;29727;47.606;19.130;2023-04-24T20:07:42;15.00;78.00
44063;DHT22;29727;47.606;19.130;2023-04-24T20:10:09;15.00;78.10
44063;DHT22;29727;47.606;19.130;2023-04-24T20:12:34;15.00;77.90
44063;DHT22;29727;47.606;19.130;2023-04-24T20:15:02;15.00;78.60
